sensor_id;sensor_type;location;lat;lon;timestamp;P1;durP1;ratioP1;P2;durP2;ratioP2
74612;SDS011;63119;51.788;8.824;2023-03-14T00:01:56;1.13;;;0.65;;
74612;SDS011;63119;51.788;8.824;2023-03-14T00:04:21;2.03;;;1.13;;
74612;SDS011;63119;51.788;8.824;2023-03-14T00:06:47;3.72;;;1.20;;
74612;SDS011;63119;51.788;8.824;2023-03-14T00:09:14;2.30;;;0.93;;
74612;SDS011;63119;51.788;8.824;2023-03-14T00:11:40;4.70;;;1.10;;
74612;SDS011;63119;51.788;8.824;2023-03-14T00:14:05;5.47;;;1.30;;
74612;SDS011;63119;51.788;8.824;2023-03-14T00:16:31;4.03;;;1.05;;
74612;SDS011;63119;51.788;8.824;2023-03-14T00:18:57;2.57;;;1.03;;
74612;SDS011;63119;51.788;8.824;2023-03-14T00:21:24;3.75;;;1.42;;
74612;SDS011;63119;51.788;8.824;2023-03-14T00:23:49;6.53;;;0.90;;
74612;SDS011;63119;51.788;8.824;2023-03-14T00:26:16;3.20;;;1.00;;
74612;SDS011;63119;51.788;8.824;2023-03-14T00:28:43;2.95;;;1.20;;
74612;SDS011;63119;51.788;8.824;2023-03-14T00:31:10;3.10;;;0.88;;
74612;SDS011;63119;51.788;8.824;2023-03-14T00:33:36;2.97;;;0.98;;
74612;SDS011;63119;51.788;8.824;2023-03-14T00:36:03;2.13;;;0.80;;
74612;SDS011;63119;51.788;8.824;2023-03-14T00:38:31;1.65;;;0.98;;
74612;SDS011;63119;51.788;8.824;2023-03-14T00:40:57;2.58;;;0.93;;
74612;SDS011;63119;51.788;8.824;2023-03-14T00:43:23;3.72;;;0.90;;
74612;SDS011;63119;51.788;8.824;2023-03-14T00:45:49;2.40;;;1.60;;
74612;SDS011;63119;51.788;8.824;2023-03-14T00:48:15;5.28;;;1.10;;
74612;SDS011;63119;51.788;8.824;2023-03-14T00:50:40;3.20;;;1.03;;
74612;SDS011;63119;51.788;8.824;2023-03-14T00:53:05;3.20;;;1.00;;
74612;SDS011;63119;51.788;8.824;2023-03-14T00:55:30;3.07;;;1.10;;
74612;SDS011;63119;51.788;8.824;2023-03-14T00:57:56;8.30;;;1.75;;
74612;SDS011;63119;51.788;8.824;2023-03-14T01:00:21;3.33;;;1.10;;
74612;SDS011;63119;51.788;8.824;2023-03-14T01:02:46;3.17;;;1.13;;
74612;SDS011;63119;51.788;8.824;2023-03-14T01:05:11;5.13;;;1.20;;
74612;SDS011;63119;51.788;8.824;2023-03-14T01:07:37;3.90;;;1.23;;
74612;SDS011;63119;51.788;8.824;2023-03-14T01:10:03;2.97;;;1.25;;
74612;SDS011;63119;51.788;8.824;2023-03-14T01:12:30;2.95;;;1.00;;
74612;SDS011;63119;51.788;8.824;2023-03-14T01:14:55;3.33;;;1.08;;
74612;SDS011;63119;51.788;8.824;2023-03-14T01:17:20;4.20;;;1.00;;
74612;SDS011;63119;51.788;8.824;2023-03-14T01:19:47;2.53;;;1.17;;
74612;SDS011;63119;51.788;8.824;2023-03-14T01:22:12;3.58;;;1.17;;
74612;SDS011;63119;51.788;8.824;2023-03-14T01:24:38;5.20;;;1.03;;
74612;SDS011;63119;51.788;8.824;2023-03-14T01:27:03;3.03;;;1.23;;
74612;SDS011;63119;51.788;8.824;2023-03-14T01:29:28;3.43;;;1.00;;
74612;SDS011;63119;51.788;8.824;2023-03-14T01:31:53;4.23;;;1.10;;
74612;SDS011;63119;51.788;8.824;2023-03-14T01:34:19;3.73;;;1.00;;
74612;SDS011;63119;51.788;8.824;2023-03-14T01:36:44;1.73;;;0.90;;
74612;SDS011;63119;51.788;8.824;2023-03-14T01:39:09;2.10;;;0.83;;
74612;SDS011;63119;51.788;8.824;2023-03-14T01:41:35;1.80;;;0.80;;
74612;SDS011;63119;51.788;8.824;2023-03-14T01:44:00;4.15;;;1.10;;
74612;SDS011;63119;51.788;8.824;2023-03-14T01:48:56;2.25;;;0.80;;
74612;SDS011;63119;51.788;8.824;2023-03-14T01:51:37;2.33;;;1.08;;
74612;SDS011;63119;51.788;8.824;2023-03-14T01:54:12;7.30;;;2.38;;
74612;SDS011;63119;51.788;8.824;2023-03-14T01:56:41;2.47;;;0.85;;
74612;SDS011;63119;51.788;8.824;2023-03-14T01:59:10;3.33;;;1.00;;
74612;SDS011;63119;51.788;8.824;2023-03-14T02:01:36;2.33;;;0.82;;
74612;SDS011;63119;51.788;8.824;2023-03-14T02:04:02;2.33;;;0.80;;
74612;SDS011;63119;51.788;8.824;2023-03-14T02:09:55;4.10;;;0.88;;
74612;SDS011;63119;51.788;8.824;2023-03-14T02:12:21;5.43;;;1.30;;
74612;SDS011;63119;51.788;8.824;2023-03-14T02:14:47;4.38;;;1.00;;
74612;SDS011;63119;51.788;8.824;2023-03-14T02:17:13;4.32;;;0.93;;
74612;SDS011;63119;51.788;8.824;2023-03-14T02:20:03;5.43;;;1.42;;
74612;SDS011;63119;51.788;8.824;2023-03-14T02:22:35;3.35;;;1.00;;
74612;SDS011;63119;51.788;8.824;2023-03-14T02:25:08;2.88;;;0.85;;
74612;SDS011;63119;51.788;8.824;2023-03-14T02:27:53;4.85;;;1.30;;
74612;SDS011;63119;51.788;8.824;2023-03-14T02:30:23;4.50;;;0.90;;
74612;SDS011;63119;51.788;8.824;2023-03-14T02:33:03;5.38;;;1.02;;
74612;SDS011;63119;51.788;8.824;2023-03-14T02:35:35;5.03;;;1.10;;
74612;SDS011;63119;51.788;8.824;2023-03-14T02:38:20;2.35;;;0.80;;
74612;SDS011;63119;51.788;8.824;2023-03-14T02:40:51;3.72;;;1.00;;
74612;SDS011;63119;51.788;8.824;2023-03-14T02:43:16;4.97;;;0.90;;
74612;SDS011;63119;51.788;8.824;2023-03-14T02:45:45;3.13;;;1.00;;
74612;SDS011;63119;51.788;8.824;2023-03-14T02:48:16;4.07;;;1.10;;
74612;SDS011;63119;51.788;8.824;2023-03-14T02:50:45;6.32;;;0.90;;
74612;SDS011;63119;51.788;8.824;2023-03-14T02:53:13;2.05;;;0.98;;
74612;SDS011;63119;51.788;8.824;2023-03-14T02:55:44;2.28;;;0.63;;
74612;SDS011;63119;51.788;8.824;2023-03-14T02:58:11;2.03;;;0.73;;
74612;SDS011;63119;51.788;8.824;2023-03-14T03:00:36;4.33;;;1.00;;
74612;SDS011;63119;51.788;8.824;2023-03-14T03:03:01;4.90;;;0.87;;
74612;SDS011;63119;51.788;8.824;2023-03-14T03:05:26;3.63;;;0.73;;
74612;SDS011;63119;51.788;8.824;2023-03-14T03:07:52;3.27;;;0.70;;
74612;SDS011;63119;51.788;8.824;2023-03-14T03:10:17;0.57;;;0.50;;
74612;SDS011;63119;51.788;8.824;2023-03-14T03:12:42;1.43;;;0.50;;
74612;SDS011;63119;51.788;8.824;2023-03-14T03:15:09;4.25;;;0.55;;
74612;SDS011;63119;51.788;8.824;2023-03-14T03:17:34;1.20;;;0.75;;
74612;SDS011;63119;51.788;8.824;2023-03-14T03:20:00;2.53;;;0.70;;
74612;SDS011;63119;51.788;8.824;2023-03-14T03:22:25;3.47;;;0.70;;
74612;SDS011;63119;51.788;8.824;2023-03-14T03:24:50;2.37;;;0.60;;
74612;SDS011;63119;51.788;8.824;2023-03-14T03:27:15;1.60;;;0.67;;
74612;SDS011;63119;51.788;8.824;2023-03-14T03:29:41;1.03;;;0.50;;
74612;SDS011;63119;51.788;8.824;2023-03-14T03:32:06;2.13;;;0.60;;
74612;SDS011;63119;51.788;8.824;2023-03-14T03:34:31;2.47;;;0.63;;
74612;SDS011;63119;51.788;8.824;2023-03-14T03:36:56;1.63;;;0.47;;
74612;SDS011;63119;51.788;8.824;2023-03-14T03:39:22;0.90;;;0.30;;
74612;SDS011;63119;51.788;8.824;2023-03-14T03:41:47;2.63;;;0.60;;
74612;SDS011;63119;51.788;8.824;2023-03-14T03:44:12;2.30;;;0.63;;
74612;SDS011;63119;51.788;8.824;2023-03-14T03:46:38;0.73;;;0.47;;
74612;SDS011;63119;51.788;8.824;2023-03-14T03:49:03;2.10;;;0.50;;
74612;SDS011;63119;51.788;8.824;2023-03-14T03:51:28;2.63;;;0.70;;
74612;SDS011;63119;51.788;8.824;2023-03-14T03:53:54;1.47;;;0.73;;
74612;SDS011;63119;51.788;8.824;2023-03-14T03:56:21;2.17;;;0.85;;
74612;SDS011;63119;51.788;8.824;2023-03-14T03:58:46;2.47;;;0.60;;
74612;SDS011;63119;51.788;8.824;2023-03-14T04:01:11;4.13;;;0.93;;
74612;SDS011;63119;51.788;8.824;2023-03-14T04:03:36;2.77;;;0.90;;
74612;SDS011;63119;51.788;8.824;2023-03-14T04:06:06;1.08;;;0.60;;
74612;SDS011;63119;51.788;8.824;2023-03-14T04:08:36;1.92;;;0.80;;
74612;SDS011;63119;51.788;8.824;2023-03-14T04:11:01;2.40;;;0.43;;
74612;SDS011;63119;51.788;8.824;2023-03-14T04:13:27;1.35;;;0.47;;
74612;SDS011;63119;51.788;8.824;2023-03-14T04:15:53;2.75;;;0.50;;
74612;SDS011;63119;51.788;8.824;2023-03-14T04:18:20;1.95;;;0.47;;
74612;SDS011;63119;51.788;8.824;2023-03-14T04:20:45;0.95;;;0.38;;
74612;SDS011;63119;51.788;8.824;2023-03-14T04:23:15;2.83;;;0.60;;
74612;SDS011;63119;51.788;8.824;2023-03-14T04:25:41;1.30;;;0.60;;
74612;SDS011;63119;51.788;8.824;2023-03-14T04:28:06;1.63;;;0.53;;
74612;SDS011;63119;51.788;8.824;2023-03-14T04:30:31;1.40;;;0.70;;
74612;SDS011;63119;51.788;8.824;2023-03-14T04:32:56;5.13;;;0.63;;
74612;SDS011;63119;51.788;8.824;2023-03-14T04:35:22;3.50;;;0.70;;
74612;SDS011;63119;51.788;8.824;2023-03-14T04:37:47;2.60;;;0.50;;
74612;SDS011;63119;51.788;8.824;2023-03-14T04:40:14;1.17;;;0.50;;
74612;SDS011;63119;51.788;8.824;2023-03-14T04:42:40;1.80;;;0.68;;
74612;SDS011;63119;51.788;8.824;2023-03-14T04:45:06;2.30;;;0.65;;
74612;SDS011;63119;51.788;8.824;2023-03-14T04:47:31;3.08;;;0.68;;
74612;SDS011;63119;51.788;8.824;2023-03-14T04:49:57;1.43;;;0.70;;
74612;SDS011;63119;51.788;8.824;2023-03-14T04:52:22;1.80;;;0.90;;
74612;SDS011;63119;51.788;8.824;2023-03-14T04:54:48;2.67;;;0.77;;
74612;SDS011;63119;51.788;8.824;2023-03-14T04:57:13;4.30;;;0.70;;
74612;SDS011;63119;51.788;8.824;2023-03-14T04:59:38;2.43;;;0.80;;
74612;SDS011;63119;51.788;8.824;2023-03-14T05:02:03;3.90;;;0.90;;
74612;SDS011;63119;51.788;8.824;2023-03-14T05:04:29;2.77;;;0.83;;
74612;SDS011;63119;51.788;8.824;2023-03-14T05:06:57;3.63;;;0.80;;
74612;SDS011;63119;51.788;8.824;2023-03-14T05:09:22;0.63;;;0.50;;
74612;SDS011;63119;51.788;8.824;2023-03-14T05:11:48;2.90;;;0.80;;
74612;SDS011;63119;51.788;8.824;2023-03-14T05:14:13;2.43;;;0.60;;
74612;SDS011;63119;51.788;8.824;2023-03-14T05:16:38;3.37;;;0.60;;
74612;SDS011;63119;51.788;8.824;2023-03-14T05:19:03;1.53;;;0.53;;
74612;SDS011;63119;51.788;8.824;2023-03-14T05:21:29;1.80;;;0.67;;
74612;SDS011;63119;51.788;8.824;2023-03-14T05:23:54;1.63;;;0.80;;
74612;SDS011;63119;51.788;8.824;2023-03-14T05:26:19;3.43;;;0.80;;
74612;SDS011;63119;51.788;8.824;2023-03-14T05:28:44;3.40;;;0.80;;
74612;SDS011;63119;51.788;8.824;2023-03-14T05:31:10;2.80;;;1.17;;
74612;SDS011;63119;51.788;8.824;2023-03-14T05:33:35;1.90;;;0.90;;
74612;SDS011;63119;51.788;8.824;2023-03-14T05:36:01;2.05;;;0.88;;
74612;SDS011;63119;51.788;8.824;2023-03-14T05:38:26;3.07;;;0.70;;
74612;SDS011;63119;51.788;8.824;2023-03-14T05:40:51;1.80;;;0.80;;
74612;SDS011;63119;51.788;8.824;2023-03-14T05:43:16;4.17;;;0.90;;
74612;SDS011;63119;51.788;8.824;2023-03-14T05:45:42;2.30;;;0.90;;
74612;SDS011;63119;51.788;8.824;2023-03-14T05:48:08;5.28;;;1.00;;
74612;SDS011;63119;51.788;8.824;2023-03-14T05:50:33;4.97;;;0.80;;
74612;SDS011;63119;51.788;8.824;2023-03-14T05:52:58;4.13;;;1.07;;
74612;SDS011;63119;51.788;8.824;2023-03-14T05:55:24;5.77;;;1.07;;
74612;SDS011;63119;51.788;8.824;2023-03-14T05:57:49;3.30;;;1.00;;
74612;SDS011;63119;51.788;8.824;2023-03-14T06:00:14;4.10;;;1.23;;
74612;SDS011;63119;51.788;8.824;2023-03-14T06:02:40;4.40;;;1.45;;
74612;SDS011;63119;51.788;8.824;2023-03-14T06:05:05;3.63;;;1.00;;
74612;SDS011;63119;51.788;8.824;2023-03-14T06:07:37;3.67;;;0.90;;
74612;SDS011;63119;51.788;8.824;2023-03-14T06:10:02;5.70;;;1.07;;
74612;SDS011;63119;51.788;8.824;2023-03-14T06:12:28;4.25;;;1.30;;
74612;SDS011;63119;51.788;8.824;2023-03-14T06:14:53;6.17;;;1.47;;
74612;SDS011;63119;51.788;8.824;2023-03-14T06:17:18;2.70;;;1.00;;
74612;SDS011;63119;51.788;8.824;2023-03-14T06:19:44;4.93;;;1.10;;
74612;SDS011;63119;51.788;8.824;2023-03-14T06:22:09;5.20;;;1.60;;
74612;SDS011;63119;51.788;8.824;2023-03-14T06:24:34;4.73;;;1.37;;
74612;SDS011;63119;51.788;8.824;2023-03-14T06:26:59;4.53;;;1.33;;
74612;SDS011;63119;51.788;8.824;2023-03-14T06:29:26;6.00;;;1.20;;
74612;SDS011;63119;51.788;8.824;2023-03-14T06:31:51;5.93;;;1.27;;
74612;SDS011;63119;51.788;8.824;2023-03-14T06:34:17;4.43;;;1.70;;
74612;SDS011;63119;51.788;8.824;2023-03-14T06:36:42;5.78;;;1.50;;
74612;SDS011;63119;51.788;8.824;2023-03-14T06:39:07;5.63;;;1.50;;
74612;SDS011;63119;51.788;8.824;2023-03-14T06:41:32;5.87;;;1.63;;
74612;SDS011;63119;51.788;8.824;2023-03-14T06:43:58;6.77;;;1.67;;
74612;SDS011;63119;51.788;8.824;2023-03-14T06:46:24;5.57;;;1.67;;
74612;SDS011;63119;51.788;8.824;2023-03-14T06:48:49;4.68;;;1.30;;
74612;SDS011;63119;51.788;8.824;2023-03-14T06:51:14;3.80;;;1.30;;
74612;SDS011;63119;51.788;8.824;2023-03-14T06:53:39;6.57;;;1.47;;
74612;SDS011;63119;51.788;8.824;2023-03-14T06:56:05;4.20;;;1.50;;
74612;SDS011;63119;51.788;8.824;2023-03-14T06:58:31;8.25;;;1.65;;
74612;SDS011;63119;51.788;8.824;2023-03-14T07:00:56;4.73;;;1.60;;
74612;SDS011;63119;51.788;8.824;2023-03-14T07:03:22;3.80;;;1.30;;
74612;SDS011;63119;51.788;8.824;2023-03-14T07:05:47;4.88;;;2.10;;
74612;SDS011;63119;51.788;8.824;2023-03-14T07:08:13;5.60;;;1.40;;
74612;SDS011;63119;51.788;8.824;2023-03-14T07:10:38;4.23;;;1.43;;
74612;SDS011;63119;51.788;8.824;2023-03-14T07:13:03;2.43;;;1.30;;
74612;SDS011;63119;51.788;8.824;2023-03-14T07:15:28;4.33;;;1.27;;
74612;SDS011;63119;51.788;8.824;2023-03-14T07:17:54;4.88;;;1.40;;
74612;SDS011;63119;51.788;8.824;2023-03-14T07:20:19;5.20;;;1.30;;
74612;SDS011;63119;51.788;8.824;2023-03-14T07:22:46;6.90;;;1.30;;
74612;SDS011;63119;51.788;8.824;2023-03-14T07:25:13;3.38;;;1.15;;
74612;SDS011;63119;51.788;8.824;2023-03-14T07:27:38;4.60;;;1.00;;
74612;SDS011;63119;51.788;8.824;2023-03-14T07:30:04;4.95;;;1.20;;
74612;SDS011;63119;51.788;8.824;2023-03-14T07:32:29;3.85;;;1.35;;
74612;SDS011;63119;51.788;8.824;2023-03-14T07:34:55;4.00;;;1.50;;
74612;SDS011;63119;51.788;8.824;2023-03-14T07:37:21;4.55;;;1.52;;
74612;SDS011;63119;51.788;8.824;2023-03-14T07:39:46;3.57;;;1.20;;
74612;SDS011;63119;51.788;8.824;2023-03-14T07:42:11;3.13;;;1.20;;
74612;SDS011;63119;51.788;8.824;2023-03-14T07:44:37;6.72;;;1.88;;
74612;SDS011;63119;51.788;8.824;2023-03-14T07:47:02;6.77;;;1.77;;
74612;SDS011;63119;51.788;8.824;2023-03-14T07:49:27;4.07;;;1.13;;
74612;SDS011;63119;51.788;8.824;2023-03-14T07:51:52;3.47;;;1.07;;
74612;SDS011;63119;51.788;8.824;2023-03-14T07:54:18;4.00;;;1.03;;
74612;SDS011;63119;51.788;8.824;2023-03-14T07:56:43;6.23;;;1.50;;
74612;SDS011;63119;51.788;8.824;2023-03-14T07:59:08;3.60;;;1.30;;
74612;SDS011;63119;51.788;8.824;2023-03-14T08:01:33;4.43;;;1.27;;
74612;SDS011;63119;51.788;8.824;2023-03-14T08:03:59;4.50;;;1.10;;
74612;SDS011;63119;51.788;8.824;2023-03-14T08:06:24;3.95;;;1.38;;
74612;SDS011;63119;51.788;8.824;2023-03-14T08:08:50;3.17;;;1.23;;
74612;SDS011;63119;51.788;8.824;2023-03-14T08:11:15;3.58;;;1.40;;
74612;SDS011;63119;51.788;8.824;2023-03-14T08:13:40;3.20;;;1.17;;
74612;SDS011;63119;51.788;8.824;2023-03-14T08:16:06;1.27;;;0.93;;
74612;SDS011;63119;51.788;8.824;2023-03-14T08:18:31;2.45;;;1.13;;
74612;SDS011;63119;51.788;8.824;2023-03-14T08:20:57;2.53;;;0.90;;
74612;SDS011;63119;51.788;8.824;2023-03-14T08:23:23;2.33;;;0.77;;
74612;SDS011;63119;51.788;8.824;2023-03-14T08:25:48;1.42;;;0.65;;
74612;SDS011;63119;51.788;8.824;2023-03-14T08:28:15;1.95;;;0.75;;
74612;SDS011;63119;51.788;8.824;2023-03-14T08:30:40;1.30;;;0.60;;
74612;SDS011;63119;51.788;8.824;2023-03-14T08:33:05;1.63;;;0.40;;
74612;SDS011;63119;51.788;8.824;2023-03-14T08:35:31;0.90;;;0.50;;
74612;SDS011;63119;51.788;8.824;2023-03-14T08:37:56;0.93;;;0.40;;
74612;SDS011;63119;51.788;8.824;2023-03-14T08:40:22;1.33;;;0.47;;
74612;SDS011;63119;51.788;8.824;2023-03-14T08:42:47;0.83;;;0.20;;
74612;SDS011;63119;51.788;8.824;2023-03-14T08:45:13;3.88;;;0.70;;
74612;SDS011;63119;51.788;8.824;2023-03-14T08:47:41;2.55;;;0.75;;
74612;SDS011;63119;51.788;8.824;2023-03-14T08:50:06;1.10;;;0.65;;
74612;SDS011;63119;51.788;8.824;2023-03-14T08:52:34;1.73;;;0.55;;
74612;SDS011;63119;51.788;8.824;2023-03-14T08:54:59;1.17;;;0.23;;
74612;SDS011;63119;51.788;8.824;2023-03-14T08:57:24;1.47;;;0.60;;
74612;SDS011;63119;51.788;8.824;2023-03-14T08:59:53;1.30;;;0.38;;
74612;SDS011;63119;51.788;8.824;2023-03-14T09:02:20;0.45;;;0.38;;
74612;SDS011;63119;51.788;8.824;2023-03-14T09:04:45;0.32;;;0.13;;
74612;SDS011;63119;51.788;8.824;2023-03-14T09:07:10;0.53;;;0.30;;
74612;SDS011;63119;51.788;8.824;2023-03-14T09:09:36;2.47;;;0.73;;
74612;SDS011;63119;51.788;8.824;2023-03-14T09:12:01;0.55;;;0.40;;
74612;SDS011;63119;51.788;8.824;2023-03-14T09:14:26;0.30;;;0.30;;
74612;SDS011;63119;51.788;8.824;2023-03-14T09:16:52;0.83;;;0.40;;
74612;SDS011;63119;51.788;8.824;2023-03-14T09:19:17;0.37;;;0.37;;
74612;SDS011;63119;51.788;8.824;2023-03-14T09:21:42;0.63;;;0.47;;
74612;SDS011;63119;51.788;8.824;2023-03-14T09:24:07;0.67;;;0.40;;
74612;SDS011;63119;51.788;8.824;2023-03-14T09:26:33;1.53;;;0.40;;
74612;SDS011;63119;51.788;8.824;2023-03-14T09:28:58;0.50;;;0.27;;
74612;SDS011;63119;51.788;8.824;2023-03-14T09:31:23;0.23;;;0.20;;
74612;SDS011;63119;51.788;8.824;2023-03-14T09:33:48;0.40;;;0.20;;
74612;SDS011;63119;51.788;8.824;2023-03-14T09:36:14;0.87;;;0.30;;
74612;SDS011;63119;51.788;8.824;2023-03-14T09:38:39;0.40;;;0.38;;
74612;SDS011;63119;51.788;8.824;2023-03-14T09:41:12;2.17;;;0.77;;
74612;SDS011;63119;51.788;8.824;2023-03-14T09:43:42;0.60;;;0.60;;
74612;SDS011;63119;51.788;8.824;2023-03-14T09:46:09;0.55;;;0.50;;
74612;SDS011;63119;51.788;8.824;2023-03-14T09:48:36;0.73;;;0.38;;
74612;SDS011;63119;51.788;8.824;2023-03-14T09:51:03;0.40;;;0.40;;
74612;SDS011;63119;51.788;8.824;2023-03-14T09:53:43;0.88;;;0.43;;
74612;SDS011;63119;51.788;8.824;2023-03-14T09:56:29;1.45;;;0.65;;
74612;SDS011;63119;51.788;8.824;2023-03-14T09:58:58;1.13;;;0.50;;
74612;SDS011;63119;51.788;8.824;2023-03-14T10:01:26;1.27;;;0.50;;
74612;SDS011;63119;51.788;8.824;2023-03-14T10:03:54;1.63;;;1.15;;
74612;SDS011;63119;51.788;8.824;2023-03-14T10:06:26;1.20;;;0.43;;
74612;SDS011;63119;51.788;8.824;2023-03-14T10:08:53;2.33;;;0.50;;
74612;SDS011;63119;51.788;8.824;2023-03-14T10:11:19;1.23;;;0.60;;
74612;SDS011;63119;51.788;8.824;2023-03-14T10:14:04;1.38;;;0.60;;
74612;SDS011;63119;51.788;8.824;2023-03-14T10:16:41;1.25;;;0.80;;
74612;SDS011;63119;51.788;8.824;2023-03-14T10:19:11;0.47;;;0.40;;
74612;SDS011;63119;51.788;8.824;2023-03-14T10:21:44;0.68;;;0.60;;
74612;SDS011;63119;51.788;8.824;2023-03-14T10:24:27;0.60;;;0.50;;
74612;SDS011;63119;51.788;8.824;2023-03-14T10:26:55;0.82;;;0.50;;
74612;SDS011;63119;51.788;8.824;2023-03-14T10:29:26;2.03;;;0.93;;
74612;SDS011;63119;51.788;8.824;2023-03-14T10:31:52;1.52;;;0.90;;
74612;SDS011;63119;51.788;8.824;2023-03-14T10:34:24;1.38;;;0.68;;
74612;SDS011;63119;51.788;8.824;2023-03-14T10:36:59;0.70;;;0.60;;
74612;SDS011;63119;51.788;8.824;2023-03-14T10:39:50;0.93;;;0.63;;
74612;SDS011;63119;51.788;8.824;2023-03-14T10:45:04;1.13;;;0.60;;
74612;SDS011;63119;51.788;8.824;2023-03-14T10:47:34;1.00;;;0.68;;
74612;SDS011;63119;51.788;8.824;2023-03-14T10:52:49;1.52;;;0.75;;
74612;SDS011;63119;51.788;8.824;2023-03-14T10:55:15;2.03;;;0.65;;
74612;SDS011;63119;51.788;8.824;2023-03-14T10:57:41;0.95;;;0.63;;
74612;SDS011;63119;51.788;8.824;2023-03-14T11:05:30;0.88;;;0.52;;
74612;SDS011;63119;51.788;8.824;2023-03-14T11:08:07;0.80;;;0.68;;
74612;SDS011;63119;51.788;8.824;2023-03-14T11:10:37;1.55;;;0.70;;
74612;SDS011;63119;51.788;8.824;2023-03-14T11:13:24;1.20;;;0.70;;
74612;SDS011;63119;51.788;8.824;2023-03-14T11:18:52;1.35;;;0.57;;
74612;SDS011;63119;51.788;8.824;2023-03-14T11:21:41;1.55;;;0.90;;
74612;SDS011;63119;51.788;8.824;2023-03-14T11:24:36;2.45;;;1.23;;
74612;SDS011;63119;51.788;8.824;2023-03-14T11:27:18;1.63;;;0.80;;
74612;SDS011;63119;51.788;8.824;2023-03-14T11:32:36;1.60;;;1.10;;
74612;SDS011;63119;51.788;8.824;2023-03-14T11:35:30;1.70;;;0.80;;
74612;SDS011;63119;51.788;8.824;2023-03-14T11:40:39;1.42;;;0.90;;
74612;SDS011;63119;51.788;8.824;2023-03-14T11:45:34;1.77;;;1.00;;
74612;SDS011;63119;51.788;8.824;2023-03-14T11:51:00;2.20;;;1.25;;
74612;SDS011;63119;51.788;8.824;2023-03-14T11:53:50;0.52;;;0.50;;
74612;SDS011;63119;51.788;8.824;2023-03-14T11:59:04;1.95;;;0.68;;
74612;SDS011;63119;51.788;8.824;2023-03-14T12:01:48;0.20;;;0.20;;
74612;SDS011;63119;51.788;8.824;2023-03-14T12:04:20;1.50;;;0.20;;
74612;SDS011;63119;51.788;8.824;2023-03-14T12:07:14;0.20;;;0.20;;
74612;SDS011;63119;51.788;8.824;2023-03-14T12:09:44;1.02;;;0.30;;
74612;SDS011;63119;51.788;8.824;2023-03-14T12:12:12;0.13;;;0.13;;
74612;SDS011;63119;51.788;8.824;2023-03-14T12:14:45;0.55;;;0.30;;
74612;SDS011;63119;51.788;8.824;2023-03-14T12:20:15;1.13;;;0.30;;
74612;SDS011;63119;51.788;8.824;2023-03-14T12:25:23;0.47;;;0.30;;
74612;SDS011;63119;51.788;8.824;2023-03-14T12:35:57;1.23;;;0.40;;
74612;SDS011;63119;51.788;8.824;2023-03-14T12:43:51;1.42;;;0.50;;
74612;SDS011;63119;51.788;8.824;2023-03-14T12:49:24;1.87;;;0.60;;
74612;SDS011;63119;51.788;8.824;2023-03-14T12:51:40;1.38;;;0.77;;
74612;SDS011;63119;51.788;8.824;2023-03-14T12:57:14;5.10;;;1.13;;
74612;SDS011;63119;51.788;8.824;2023-03-14T12:59:56;4.03;;;1.00;;
74612;SDS011;63119;51.788;8.824;2023-03-14T13:02:25;1.60;;;0.82;;
74612;SDS011;63119;51.788;8.824;2023-03-14T13:04:59;3.85;;;1.33;;
74612;SDS011;63119;51.788;8.824;2023-03-14T13:15:21;5.20;;;1.20;;
74612;SDS011;63119;51.788;8.824;2023-03-14T13:17:49;2.10;;;0.82;;
74612;SDS011;63119;51.788;8.824;2023-03-14T13:20:18;6.35;;;1.20;;
74612;SDS011;63119;51.788;8.824;2023-03-14T13:22:52;3.58;;;1.30;;
74612;SDS011;63119;51.788;8.824;2023-03-14T13:25:18;4.30;;;0.73;;
74612;SDS011;63119;51.788;8.824;2023-03-14T13:27:45;5.22;;;1.10;;
74612;SDS011;63119;51.788;8.824;2023-03-14T13:30:13;3.35;;;0.98;;
74612;SDS011;63119;51.788;8.824;2023-03-14T13:32:42;6.00;;;1.40;;
74612;SDS011;63119;51.788;8.824;2023-03-14T13:37:46;4.10;;;1.48;;
74612;SDS011;63119;51.788;8.824;2023-03-14T13:40:18;3.67;;;1.15;;
74612;SDS011;63119;51.788;8.824;2023-03-14T13:42:45;6.05;;;2.10;;
74612;SDS011;63119;51.788;8.824;2023-03-14T13:45:12;6.13;;;2.00;;
74612;SDS011;63119;51.788;8.824;2023-03-14T13:47:39;4.22;;;1.10;;
74612;SDS011;63119;51.788;8.824;2023-03-14T13:50:04;6.22;;;1.23;;
74612;SDS011;63119;51.788;8.824;2023-03-14T13:52:31;5.18;;;1.38;;
74612;SDS011;63119;51.788;8.824;2023-03-14T13:55:00;11.10;;;1.75;;
74612;SDS011;63119;51.788;8.824;2023-03-14T13:57:26;4.22;;;1.00;;
74612;SDS011;63119;51.788;8.824;2023-03-14T14:00:02;5.03;;;1.23;;
74612;SDS011;63119;51.788;8.824;2023-03-14T14:02:35;6.75;;;1.25;;
74612;SDS011;63119;51.788;8.824;2023-03-14T14:05:02;6.07;;;1.05;;
74612;SDS011;63119;51.788;8.824;2023-03-14T14:07:29;6.35;;;1.35;;
74612;SDS011;63119;51.788;8.824;2023-03-14T14:09:54;4.60;;;1.00;;
74612;SDS011;63119;51.788;8.824;2023-03-14T14:12:42;5.13;;;0.90;;
74612;SDS011;63119;51.788;8.824;2023-03-14T14:15:21;9.80;;;1.70;;
74612;SDS011;63119;51.788;8.824;2023-03-14T14:17:51;4.43;;;1.05;;
74612;SDS011;63119;51.788;8.824;2023-03-14T14:20:26;6.35;;;1.33;;
74612;SDS011;63119;51.788;8.824;2023-03-14T14:25:29;14.48;;;2.03;;
74612;SDS011;63119;51.788;8.824;2023-03-14T14:27:55;10.15;;;1.92;;
74612;SDS011;63119;51.788;8.824;2023-03-14T14:32:46;10.00;;;1.97;;
74612;SDS011;63119;51.788;8.824;2023-03-14T14:37:49;9.02;;;1.73;;
74612;SDS011;63119;51.788;8.824;2023-03-14T14:40:19;7.35;;;1.40;;
74612;SDS011;63119;51.788;8.824;2023-03-14T14:42:47;10.02;;;1.55;;
74612;SDS011;63119;51.788;8.824;2023-03-14T14:45:16;8.82;;;1.98;;
74612;SDS011;63119;51.788;8.824;2023-03-14T14:47:51;8.32;;;2.00;;
74612;SDS011;63119;51.788;8.824;2023-03-14T14:53:40;12.93;;;2.45;;
74612;SDS011;63119;51.788;8.824;2023-03-14T14:55:54;9.75;;;2.00;;
74612;SDS011;63119;51.788;8.824;2023-03-14T14:58:25;12.02;;;2.38;;
74612;SDS011;63119;51.788;8.824;2023-03-14T15:00:59;11.73;;;2.03;;
74612;SDS011;63119;51.788;8.824;2023-03-14T15:03:31;12.48;;;2.00;;
74612;SDS011;63119;51.788;8.824;2023-03-14T15:05:58;7.63;;;1.63;;
74612;SDS011;63119;51.788;8.824;2023-03-14T15:08:24;6.68;;;1.92;;
74612;SDS011;63119;51.788;8.824;2023-03-14T15:10:51;6.13;;;1.52;;
74612;SDS011;63119;51.788;8.824;2023-03-14T15:13:16;6.97;;;1.83;;
74612;SDS011;63119;51.788;8.824;2023-03-14T15:15:41;13.43;;;1.70;;
74612;SDS011;63119;51.788;8.824;2023-03-14T15:18:10;11.07;;;2.03;;
74612;SDS011;63119;51.788;8.824;2023-03-14T15:20:38;7.88;;;1.95;;
74612;SDS011;63119;51.788;8.824;2023-03-14T15:23:07;8.97;;;2.47;;
74612;SDS011;63119;51.788;8.824;2023-03-14T15:25:34;10.68;;;1.98;;
74612;SDS011;63119;51.788;8.824;2023-03-14T15:27:59;9.53;;;1.70;;
74612;SDS011;63119;51.788;8.824;2023-03-14T15:30:25;11.20;;;1.93;;
74612;SDS011;63119;51.788;8.824;2023-03-14T15:32:50;9.73;;;1.77;;
74612;SDS011;63119;51.788;8.824;2023-03-14T15:35:15;8.80;;;1.87;;
74612;SDS011;63119;51.788;8.824;2023-03-14T15:37:40;8.63;;;1.87;;
74612;SDS011;63119;51.788;8.824;2023-03-14T15:40:06;5.43;;;1.27;;
74612;SDS011;63119;51.788;8.824;2023-03-14T15:42:38;8.35;;;2.03;;
74612;SDS011;63119;51.788;8.824;2023-03-14T15:45:04;6.03;;;1.40;;
74612;SDS011;63119;51.788;8.824;2023-03-14T15:47:29;5.35;;;1.63;;
74612;SDS011;63119;51.788;8.824;2023-03-14T15:49:57;7.55;;;1.65;;
74612;SDS011;63119;51.788;8.824;2023-03-14T15:52:22;10.73;;;1.60;;
74612;SDS011;63119;51.788;8.824;2023-03-14T15:54:47;11.23;;;1.47;;
74612;SDS011;63119;51.788;8.824;2023-03-14T15:57:12;8.43;;;1.57;;
74612;SDS011;63119;51.788;8.824;2023-03-14T15:59:38;12.97;;;1.67;;
74612;SDS011;63119;51.788;8.824;2023-03-14T16:02:03;7.73;;;1.40;;
74612;SDS011;63119;51.788;8.824;2023-03-14T16:04:28;9.07;;;1.50;;
74612;SDS011;63119;51.788;8.824;2023-03-14T16:06:53;4.87;;;1.40;;
74612;SDS011;63119;51.788;8.824;2023-03-14T16:09:19;4.13;;;1.37;;
74612;SDS011;63119;51.788;8.824;2023-03-14T16:11:45;5.68;;;1.35;;